createdAt,value
2023-01-13T00:04:51.326Z,22.42
2023-01-13T00:11:53.613Z,20.30
2023-01-13T00:18:56.001Z,18.17
2023-01-13T00:25:59.151Z,20.88
2023-01-13T00:33:01.879Z,22.05
2023-01-13T00:40:05.111Z,21.17
2023-01-13T00:47:07.262Z,20.60
2023-01-13T00:54:09.370Z,11.45
2023-01-13T01:01:20.077Z,16.48
2023-01-13T01:08:22.342Z,17.20
2023-01-13T01:15:24.451Z,16.98
2023-01-13T01:22:26.624Z,19.42
2023-01-13T01:29:28.845Z,21.23
2023-01-13T01:36:31.039Z,15.52
2023-01-13T01:44:00.594Z,27.38
2023-01-13T01:51:03.335Z,18.60
2023-01-13T01:58:13.013Z,16.15
2023-01-13T02:05:15.300Z,15.88
2023-01-13T02:12:32.893Z,20.70
2023-01-13T02:19:56.571Z,14.45
2023-01-13T02:27:25.448Z,23.35
2023-01-13T02:34:38.417Z,13.88
2023-01-13T02:42:03.959Z,20.08
2023-01-13T02:49:09.259Z,21.30
2023-01-13T02:56:12.365Z,20.25
2023-01-13T03:03:14.665Z,14.18
2023-01-13T03:10:23.143Z,16.15
2023-01-13T03:17:51.248Z,17.08
2023-01-13T03:24:57.044Z,21.40
2023-01-13T03:32:14.729Z,18.00
2023-01-13T03:39:21.808Z,17.35
2023-01-13T03:46:45.500Z,17.98
2023-01-13T03:53:51.472Z,15.30
2023-01-13T04:01:21.418Z,13.57
2023-01-13T04:15:33.528Z,19.42
2023-01-13T04:22:35.547Z,19.33
2023-01-13T04:29:37.480Z,15.43
2023-01-13T04:36:39.761Z,16.50
2023-01-13T04:43:41.753Z,18.27
2023-01-13T04:50:43.705Z,16.30
2023-01-13T04:57:45.942Z,20.27
2023-01-13T05:04:48.702Z,18.90
2023-01-13T05:12:09.060Z,17.58
2023-01-13T05:19:11.040Z,15.88
2023-01-13T05:26:13.135Z,12.02
2023-01-13T05:33:20.624Z,15.40
2023-01-13T05:40:41.365Z,23.52
2023-01-13T05:47:43.373Z,20.63
2023-01-13T05:54:45.319Z,20.30
2023-01-13T06:01:47.433Z,29.88
2023-01-13T06:08:49.593Z,17.83
2023-01-13T06:15:51.697Z,20.30
2023-01-13T06:22:54.174Z,23.25
2023-01-13T06:29:57.357Z,20.02
2023-01-13T06:36:59.335Z,20.00
2023-01-13T06:44:01.317Z,21.80
2023-01-13T06:51:05.087Z,19.45
2023-01-13T06:58:07.539Z,19.05
2023-01-13T07:05:09.709Z,23.60
2023-01-13T07:12:12.410Z,22.75
2023-01-13T07:19:14.257Z,26.35
2023-01-13T07:26:16.846Z,21.92
2023-01-13T07:33:19.398Z,17.05
2023-01-13T07:40:21.547Z,15.82
2023-01-13T07:47:23.597Z,17.80
2023-01-13T07:54:39.714Z,16.60
2023-01-13T08:01:42.457Z,14.75
2023-01-13T08:08:44.551Z,16.55
2023-01-13T08:15:50.921Z,15.45
2023-01-13T08:23:00.104Z,15.13
2023-01-13T08:30:02.178Z,19.00
2023-01-13T08:37:04.234Z,16.98
2023-01-13T08:44:07.093Z,15.88
2023-01-13T08:51:09.708Z,19.77
2023-01-13T08:58:15.876Z,19.15
2023-01-13T09:05:18.249Z,13.70
2023-01-13T09:12:38.959Z,17.67
2023-01-13T09:19:40.962Z,25.95
2023-01-13T09:26:42.985Z,20.30
2023-01-13T09:34:03.573Z,13.95
2023-01-13T09:41:25.819Z,15.55
2023-01-13T09:48:33.810Z,16.77
2023-01-13T09:55:39.469Z,14.82
2023-01-13T10:03:04.331Z,15.57
2023-01-13T10:10:11.695Z,17.65
2023-01-13T10:17:43.380Z,20.48
2023-01-13T10:25:03.859Z,21.17
2023-01-13T10:32:05.838Z,18.88
2023-01-13T10:39:16.197Z,16.10
2023-01-13T10:46:19.349Z,19.73
2023-01-13T10:53:25.531Z,22.95
2023-01-13T11:00:30.325Z,18.00
2023-01-13T11:07:35.506Z,18.25
2023-01-13T11:14:40.769Z,24.17
2023-01-13T11:21:55.664Z,26.38
2023-01-13T11:29:04.223Z,21.83
2023-01-13T11:36:22.119Z,16.20
2023-01-13T11:43:34.273Z,20.67
2023-01-13T11:50:42.398Z,19.73
2023-01-13T11:58:14.707Z,21.80
2023-01-13T12:05:40.072Z,21.75
2023-01-13T12:13:14.962Z,21.83
2023-01-13T12:20:55.110Z,23.77
2023-01-13T12:28:02.812Z,26.73
2023-01-13T12:35:15.083Z,25.98
2023-01-13T12:43:01.419Z,17.33
2023-01-13T12:50:26.390Z,15.25
2023-01-13T12:57:29.888Z,15.75
2023-01-13T13:04:56.286Z,19.88
2023-01-13T13:11:58.228Z,20.00
2023-01-13T13:19:18.734Z,18.30
2023-01-13T13:26:25.752Z,16.02
2023-01-13T13:33:39.626Z,18.80
2023-01-13T13:41:02.603Z,20.75
2023-01-13T13:48:24.975Z,16.65
2023-01-13T13:55:29.551Z,15.30
2023-01-13T14:02:34.141Z,15.55
2023-01-13T14:09:42.349Z,15.32
2023-01-13T14:16:44.354Z,21.90
2023-01-13T14:23:59.089Z,22.38
2023-01-13T14:31:01.707Z,18.88
2023-01-13T14:38:04.775Z,19.35
2023-01-13T14:45:23.573Z,16.92
2023-01-13T14:52:28.253Z,23.05
2023-01-13T14:59:33.880Z,20.27
2023-01-13T15:06:37.838Z,26.45
2023-01-13T15:13:52.843Z,24.33
2023-01-13T15:20:55.562Z,25.60
2023-01-13T15:27:58.018Z,23.90
2023-01-13T15:35:00.309Z,21.45
2023-01-13T15:42:23.464Z,30.48
2023-01-13T15:49:35.453Z,23.80
2023-01-13T15:56:39.215Z,27.42
2023-01-13T16:03:41.286Z,28.92
2023-01-13T16:10:45.701Z,41.17
2023-01-13T16:17:56.297Z,25.52
2023-01-13T16:24:58.399Z,29.92
2023-01-13T16:32:00.441Z,26.42
2023-01-13T16:39:05.595Z,26.50
2023-01-13T16:46:19.819Z,39.65
2023-01-13T16:53:21.977Z,40.25
2023-01-13T17:00:24.538Z,35.65
2023-01-13T17:07:26.740Z,32.78
2023-01-13T17:14:29.288Z,37.83
2023-01-13T17:21:31.595Z,34.78
2023-01-13T17:28:34.072Z,32.83
2023-01-13T17:35:39.520Z,35.65
2023-01-13T17:42:41.770Z,32.50
2023-01-13T17:49:43.942Z,30.75
2023-01-13T17:56:48.156Z,37.97
2023-01-13T18:03:50.482Z,38.55
2023-01-13T18:10:53.091Z,36.72
2023-01-13T18:17:55.437Z,26.45
2023-01-13T18:25:18.060Z,36.22
2023-01-13T18:32:22.054Z,29.35
2023-01-13T18:39:24.345Z,29.80
2023-01-13T18:46:26.929Z,28.88
2023-01-13T18:53:30.035Z,33.65
2023-01-13T19:00:37.664Z,29.00
2023-01-13T19:07:40.683Z,32.42
2023-01-13T19:14:45.160Z,35.15
2023-01-13T19:21:49.354Z,40.85
2023-01-13T19:28:53.565Z,27.02
2023-01-13T19:35:56.059Z,29.00
2023-01-13T19:43:17.115Z,36.25
2023-01-13T19:50:22.058Z,24.30
2023-01-13T19:57:26.978Z,26.73
2023-01-13T20:04:40.087Z,27.30
2023-01-13T20:11:46.681Z,26.45
2023-01-13T20:18:52.617Z,21.98
2023-01-13T20:25:56.026Z,26.40
2023-01-13T20:33:00.444Z,26.13
2023-01-13T20:40:17.935Z,30.33
2023-01-13T20:47:22.250Z,23.98
2023-01-13T20:54:25.438Z,25.98
2023-01-13T21:01:34.802Z,24.27
2023-01-13T21:08:39.175Z,18.17
2023-01-13T21:15:41.410Z,18.05
2023-01-13T21:22:49.155Z,19.92
2023-01-13T21:29:52.707Z,17.15
2023-01-13T21:36:55.616Z,21.00
2023-01-13T21:44:16.159Z,23.20
2023-01-13T21:51:18.302Z,17.75
2023-01-13T21:58:20.687Z,19.27
2023-01-13T22:05:24.348Z,8.68
2023-01-13T22:12:27.246Z,12.82
2023-01-13T22:19:30.635Z,22.40
2023-01-13T22:26:32.809Z,19.85
2023-01-13T22:33:34.785Z,16.80
2023-01-13T22:40:36.799Z,17.73
2023-01-13T22:47:38.840Z,17.60
2023-01-13T22:54:40.833Z,16.13
2023-01-13T23:01:43.481Z,15.60
2023-01-13T23:08:46.738Z,14.50
2023-01-13T23:15:49.748Z,20.67
2023-01-13T23:22:51.883Z,15.45
2023-01-13T23:29:55.970Z,16.23
2023-01-13T23:36:57.931Z,25.33
2023-01-13T23:44:01.094Z,15.65
2023-01-13T23:51:05.975Z,14.07
2023-01-13T23:58:08.094Z,15.80
